createdAt,value
2022-09-23T00:00:44.505Z,100402.78
2022-09-23T00:03:32.926Z,100403.91
2022-09-23T00:06:03.042Z,100405.42
2022-09-23T00:08:34.870Z,100402.92
2022-09-23T00:11:08.641Z,100404.91
2022-09-23T00:13:42.244Z,100402.20
2022-09-23T00:16:19.499Z,100402.45
2022-09-23T00:18:50.796Z,100401.98
2022-09-23T00:21:23.209Z,100399.80
2022-09-23T00:23:54.070Z,100392.20
2022-09-23T00:26:23.620Z,100391.06
2022-09-23T00:28:54.084Z,100393.36
2022-09-23T00:31:27.557Z,100389.73
2022-09-23T00:33:59.778Z,100388.53
2022-09-23T00:36:31.219Z,100388.55
2022-09-23T00:39:04.625Z,100385.58
2022-09-23T00:41:36.729Z,100379.85
2022-09-23T00:44:47.536Z,100379.89
2022-09-23T00:47:45.730Z,100374.48
2022-09-23T00:50:30.355Z,100372.56
2022-09-23T00:53:08.270Z,100368.20
2022-09-23T00:56:07.688Z,100366.25
2022-09-23T00:58:41.931Z,100362.17
2022-09-23T01:01:16.001Z,100359.72
2022-09-23T01:03:49.043Z,100360.62
2022-09-23T01:06:17.484Z,100356.77
2022-09-23T01:08:50.524Z,100355.05
2022-09-23T01:11:34.066Z,100355.28
2022-09-23T01:14:12.501Z,100346.79
2022-09-23T01:16:53.164Z,100346.28
2022-09-23T01:19:37.051Z,100349.56
2022-09-23T01:22:34.435Z,100345.39
2022-09-23T01:25:43.526Z,100344.73
2022-09-23T01:28:46.470Z,100346.06
2022-09-23T01:31:24.636Z,100346.58
2022-09-23T01:34:20.488Z,100345.04
2022-09-23T01:37:24.269Z,100341.95
2022-09-23T01:40:07.023Z,100340.73
2022-09-23T01:42:53.382Z,100339.45
2022-09-23T01:45:54.605Z,100335.80
2022-09-23T01:48:32.831Z,100337.60
2022-09-23T01:51:19.457Z,100333.77
2022-09-23T01:53:59.832Z,100332.98
2022-09-23T01:56:44.794Z,100328.92
2022-09-23T01:59:38.919Z,100326.14
2022-09-23T02:02:14.364Z,100327.81
2022-09-23T02:04:57.001Z,100327.56
2022-09-23T02:07:53.364Z,100326.23
2022-09-23T02:10:45.035Z,100325.44
2022-09-23T02:13:31.272Z,100327.41
2022-09-23T02:16:05.033Z,100325.91
2022-09-23T02:18:46.426Z,100326.02
2022-09-23T02:21:16.760Z,100321.12
2022-09-23T02:23:59.511Z,100318.45
2022-09-23T02:26:47.141Z,100321.00
2022-09-23T02:29:28.207Z,100316.55
2022-09-23T02:32:24.897Z,100318.90
2022-09-23T02:35:20.273Z,100309.98
2022-09-23T02:38:18.065Z,100310.11
2022-09-23T02:41:02.793Z,100311.13
2022-09-23T02:43:40.207Z,100311.59
2022-09-23T02:46:10.691Z,100312.09
2022-09-23T02:48:46.876Z,100315.10
2022-09-23T02:51:15.308Z,100311.95
2022-09-23T02:53:57.736Z,100316.30
2022-09-23T02:56:29.068Z,100315.14
2022-09-23T02:58:58.631Z,100313.47
2022-09-23T03:01:39.481Z,100314.68
2022-09-23T03:04:53.731Z,100311.02
2022-09-23T03:07:43.163Z,100309.42
2022-09-23T03:10:23.108Z,100308.46
2022-09-23T03:13:33.175Z,100300.34
2022-09-23T03:16:35.391Z,100297.45
2022-09-23T03:19:03.592Z,100299.95
2022-09-23T03:21:38.668Z,100294.09
2022-09-23T03:24:10.545Z,100293.98
2022-09-23T03:26:41.074Z,100290.73
2022-09-23T03:29:12.073Z,100286.98
2022-09-23T03:31:42.625Z,100286.15
2022-09-23T03:34:28.408Z,100284.27
2022-09-23T03:37:01.579Z,100281.33
2022-09-23T03:39:41.203Z,100279.80
2022-09-23T03:42:22.681Z,100274.09
2022-09-23T03:44:59.776Z,100269.59
2022-09-23T03:47:28.929Z,100267.54
2022-09-23T03:49:57.635Z,100269.13
2022-09-23T03:52:29.938Z,100268.14
2022-09-23T03:55:02.255Z,100267.44
2022-09-23T03:57:32.166Z,100267.61
2022-09-23T04:00:15.160Z,100268.43
2022-09-23T04:02:55.429Z,100263.64
2022-09-23T04:05:23.729Z,100259.73
2022-09-23T04:07:53.437Z,100258.48
2022-09-23T04:10:31.747Z,100261.91
2022-09-23T04:13:05.049Z,100259.77
2022-09-23T04:15:39.510Z,100259.35
2022-09-23T04:18:08.167Z,100261.20
2022-09-23T04:20:47.610Z,100255.58
2022-09-23T04:23:20.417Z,100254.13
2022-09-23T04:25:52.378Z,100257.73
2022-09-23T04:28:22.276Z,100253.69
2022-09-23T04:30:51.536Z,100250.84
2022-09-23T04:33:24.801Z,100247.09
2022-09-23T04:35:58.639Z,100240.77
2022-09-23T04:38:27.824Z,100244.20
2022-09-23T04:41:07.048Z,100242.69
2022-09-23T04:43:37.565Z,100238.63
2022-09-23T04:46:15.682Z,100243.62
2022-09-23T04:49:00.459Z,100239.06
2022-09-23T04:51:34.906Z,100241.25
2022-09-23T04:54:03.349Z,100241.78
2022-09-23T04:56:34.553Z,100237.79
2022-09-23T04:59:02.973Z,100239.73
2022-09-23T05:01:35.298Z,100238.63
2022-09-23T05:04:06.313Z,100239.72
2022-09-23T05:06:36.207Z,100240.05
2022-09-23T05:09:07.676Z,100241.32
2022-09-23T05:11:43.002Z,100240.20
2022-09-23T05:14:26.507Z,100238.48
2022-09-23T05:16:57.907Z,100241.34
2022-09-23T05:19:28.053Z,100241.14
2022-09-23T05:21:59.523Z,100241.35
2022-09-23T05:24:30.615Z,100241.19
2022-09-23T05:26:58.709Z,100242.02
2022-09-23T05:29:29.456Z,100239.23
2022-09-23T05:31:58.260Z,100239.64
2022-09-23T05:34:30.069Z,100241.16
2022-09-23T05:37:06.678Z,100241.54
2022-09-23T05:39:48.389Z,100240.81
2022-09-23T05:42:23.018Z,100242.58
2022-09-23T05:44:59.449Z,100244.73
2022-09-23T05:47:32.126Z,100247.60
2022-09-23T05:50:03.430Z,100244.42
2022-09-23T05:52:31.725Z,100241.90
2022-09-23T05:54:59.944Z,100242.54
2022-09-23T05:57:30.739Z,100236.95
2022-09-23T05:59:58.837Z,100237.56
2022-09-23T06:02:30.439Z,100233.78
2022-09-23T06:04:59.165Z,100233.33
2022-09-23T06:07:28.358Z,100230.60
2022-09-23T06:09:56.512Z,100229.73
2022-09-23T06:12:25.478Z,100227.89
2022-09-23T06:14:54.259Z,100225.17
2022-09-23T06:17:33.550Z,100223.89
2022-09-23T06:20:02.184Z,100228.49
2022-09-23T06:22:30.621Z,100234.16
2022-09-23T06:24:58.707Z,100234.52
2022-09-23T06:27:30.143Z,100235.42
2022-09-23T06:30:18.072Z,100230.84
2022-09-23T06:32:57.643Z,100224.58
2022-09-23T06:35:27.867Z,100225.65
2022-09-23T06:38:01.015Z,100225.04
2022-09-23T06:40:31.413Z,100228.71
2022-09-23T06:43:01.888Z,100229.05
2022-09-23T06:45:30.858Z,100228.10
2022-09-23T06:47:59.041Z,100222.73
2022-09-23T06:50:28.377Z,100222.68
2022-09-23T06:53:01.924Z,100218.77
2022-09-23T06:55:31.056Z,100218.70
2022-09-23T06:58:07.970Z,100223.63
2022-09-23T07:00:38.029Z,100224.89
2022-09-23T07:03:12.180Z,100230.55
2022-09-23T07:05:42.890Z,100231.30
2022-09-23T07:08:11.679Z,100236.48
2022-09-23T07:10:41.395Z,100236.41
2022-09-23T07:13:16.034Z,100234.67
2022-09-23T07:15:56.338Z,100238.27
2022-09-23T07:18:26.370Z,100237.98
2022-09-23T07:20:58.345Z,100237.23
2022-09-23T07:23:33.751Z,100241.80
2022-09-23T07:26:13.948Z,100242.92
2022-09-23T07:28:42.365Z,100245.95
2022-09-23T07:31:38.610Z,100240.78
2022-09-23T07:34:11.826Z,100244.38
2022-09-23T07:36:50.584Z,100240.63
2022-09-23T07:39:22.771Z,100242.31
2022-09-23T07:41:57.093Z,100241.95
2022-09-23T07:44:26.012Z,100248.17
2022-09-23T07:47:03.696Z,100248.60
2022-09-23T07:49:52.247Z,100251.76
2022-09-23T07:52:38.842Z,100242.69
2022-09-23T07:55:18.858Z,100240.98
2022-09-23T07:57:50.544Z,100244.35
2022-09-23T08:00:52.859Z,100242.82
2022-09-23T08:03:22.099Z,100242.92
2022-09-23T08:05:54.037Z,100244.65
2022-09-23T08:08:38.772Z,100245.75
2022-09-23T08:11:19.204Z,100240.61
2022-09-23T08:13:51.779Z,100244.94
2022-09-23T08:16:23.403Z,100243.55
2022-09-23T08:18:52.877Z,100245.13
2022-09-23T08:21:22.955Z,100242.77
2022-09-23T08:23:55.009Z,100241.08
2022-09-23T08:26:23.600Z,100238.18
2022-09-23T08:28:55.447Z,100237.85
2022-09-23T08:31:25.506Z,100238.06
2022-09-23T08:33:56.485Z,100233.31
2022-09-23T08:36:30.997Z,100231.38
2022-09-23T08:39:02.333Z,100233.54
2022-09-23T08:41:58.447Z,100229.87
2022-09-23T08:44:35.924Z,100225.52
2022-09-23T08:47:41.383Z,100222.33
2022-09-23T08:50:20.548Z,100215.14
2022-09-23T08:52:53.364Z,100217.16
2022-09-23T08:55:54.617Z,100214.14
2022-09-23T08:58:53.981Z,100209.02
2022-09-23T09:01:47.234Z,100211.32
2022-09-23T09:04:40.870Z,100205.53
2022-09-23T09:07:35.739Z,100210.08
2022-09-23T09:10:35.451Z,100207.21
2022-09-23T09:13:15.492Z,100208.58
2022-09-23T09:15:57.938Z,100210.60
2022-09-23T09:18:51.232Z,100207.45
2022-09-23T09:21:42.685Z,100209.73
2022-09-23T09:24:22.328Z,100208.63
2022-09-23T09:27:19.256Z,100207.09
2022-09-23T09:29:59.020Z,100205.81
2022-09-23T09:32:48.755Z,100203.08
2022-09-23T09:35:57.953Z,100197.70
2022-09-23T09:38:36.488Z,100196.98
2022-09-23T09:41:40.335Z,100188.84
2022-09-23T09:44:31.844Z,100190.73
2022-09-23T09:47:03.467Z,100189.27
2022-09-23T09:49:46.326Z,100192.27
2022-09-23T09:52:33.458Z,100188.08
2022-09-23T09:55:40.113Z,100185.15
2022-09-23T09:58:17.922Z,100185.31
2022-09-23T10:00:52.600Z,100180.45
2022-09-23T10:03:37.806Z,100175.63
2022-09-23T10:06:27.983Z,100166.86
2022-09-23T10:09:02.089Z,100161.80
2022-09-23T10:11:34.465Z,100155.26
2022-09-23T10:14:13.358Z,100155.42
2022-09-23T10:16:44.814Z,100156.27
2022-09-23T10:19:23.519Z,100154.23
2022-09-23T10:21:57.524Z,100152.37
2022-09-23T10:24:30.709Z,100149.59
2022-09-23T10:27:17.265Z,100143.92
2022-09-23T10:30:15.501Z,100142.94
2022-09-23T10:32:45.353Z,100147.42
2022-09-23T10:35:22.384Z,100145.40
2022-09-23T10:38:00.964Z,100141.36
2022-09-23T10:40:58.279Z,100142.83
2022-09-23T10:44:12.614Z,100140.10
2022-09-23T10:47:28.510Z,100144.09
2022-09-23T10:50:29.101Z,100138.06
2022-09-23T10:53:44.291Z,100136.55
2022-09-23T10:56:39.914Z,100128.66
2022-09-23T10:59:22.698Z,100127.94
2022-09-23T11:02:17.869Z,100121.67
2022-09-23T11:05:29.485Z,100108.52
2022-09-23T11:08:46.119Z,100112.34
2022-09-23T11:11:47.603Z,100111.09
2022-09-23T11:15:04.090Z,100113.64
2022-09-23T11:18:31.890Z,100103.67
2022-09-23T11:22:08.705Z,100097.01
2022-09-23T11:25:00.376Z,100088.89
2022-09-23T11:28:00.721Z,100085.48
2022-09-23T11:31:15.676Z,100087.05
2022-09-23T11:34:02.412Z,100079.90
2022-09-23T11:36:54.841Z,100073.39
2022-09-23T11:39:42.318Z,100074.80
2022-09-23T11:42:28.072Z,100069.86
2022-09-23T11:45:06.931Z,100055.29
2022-09-23T11:47:57.278Z,100058.67
2022-09-23T11:51:10.620Z,100064.19
2022-09-23T11:53:50.333Z,100061.91
2022-09-23T11:56:49.249Z,100060.16
2022-09-23T11:59:40.062Z,100061.09
2022-09-23T12:02:28.248Z,100050.25
2022-09-23T12:05:20.591Z,100046.62
2022-09-23T12:08:01.628Z,100049.30
2022-09-23T12:10:49.166Z,100042.47
2022-09-23T12:14:01.578Z,100035.23
2022-09-23T12:16:43.323Z,100024.40
2022-09-23T12:19:33.736Z,100024.16
2022-09-23T12:22:05.025Z,100016.63
2022-09-23T12:24:45.176Z,100021.05
2022-09-23T12:27:34.075Z,100022.80
2022-09-23T12:30:11.526Z,100019.81
2022-09-23T12:32:46.718Z,100022.35
2022-09-23T12:35:40.447Z,100021.83
2022-09-23T12:38:25.302Z,100018.98
2022-09-23T12:40:56.340Z,100017.34
2022-09-23T12:43:35.061Z,100011.74
2022-09-23T12:46:25.823Z,100005.38
2022-09-23T12:49:06.587Z,100004.21
2022-09-23T12:51:39.276Z,100003.50
2022-09-23T12:54:47.108Z,99998.17
2022-09-23T12:57:34.693Z,100004.64
2022-09-23T13:00:23.040Z,100003.96
2022-09-23T13:03:20.291Z,100000.89
2022-09-23T13:06:35.659Z,100001.95
2022-09-23T13:09:25.796Z,100001.03
2022-09-23T13:12:00.420Z,99994.30
2022-09-23T13:14:39.361Z,99988.59
2022-09-23T13:17:24.797Z,99988.17
2022-09-23T13:20:41.221Z,99976.85
2022-09-23T13:23:35.007Z,99979.27
2022-09-23T13:26:14.022Z,99974.20
2022-09-23T13:29:10.353Z,99974.66
2022-09-23T13:32:12.144Z,99968.60
2022-09-23T13:35:27.049Z,99962.73
2022-09-23T13:38:30.056Z,99960.19
2022-09-23T13:41:16.406Z,99958.45
2022-09-23T13:43:55.837Z,99958.52
2022-09-23T13:46:43.788Z,99953.30
2022-09-23T13:49:30.070Z,99950.45
2022-09-23T13:52:33.381Z,99945.70
2022-09-23T13:55:07.097Z,99940.70
2022-09-23T13:57:36.633Z,99938.05
2022-09-23T14:00:26.474Z,99935.23
2022-09-23T14:03:06.590Z,99931.36
2022-09-23T14:05:54.752Z,99929.09
2022-09-23T14:08:24.742Z,99925.27
2022-09-23T14:10:58.389Z,99924.89
2022-09-23T14:13:41.826Z,99922.19
2022-09-23T14:16:15.186Z,99922.61
2022-09-23T14:18:52.122Z,99918.53
2022-09-23T14:21:35.404Z,99921.98
2022-09-23T14:24:25.492Z,99924.13
2022-09-23T14:27:09.724Z,99919.44
2022-09-23T14:30:24.387Z,99917.79
2022-09-23T14:33:00.309Z,99915.04
2022-09-23T14:35:44.799Z,99915.16
2022-09-23T14:38:39.743Z,99914.31
2022-09-23T14:41:38.926Z,99909.30
2022-09-23T14:44:08.486Z,99906.84
2022-09-23T14:46:51.117Z,99902.02
2022-09-23T14:49:19.317Z,99895.98
2022-09-23T14:51:47.551Z,99892.46
2022-09-23T14:54:40.161Z,99889.84
2022-09-23T14:57:26.629Z,99892.61
2022-09-23T15:00:01.120Z,99888.52
2022-09-23T15:02:36.855Z,99889.14
2022-09-23T15:05:24.365Z,99889.73
2022-09-23T15:07:58.188Z,99885.67
2022-09-23T15:10:32.010Z,99887.54
2022-09-23T15:13:19.908Z,99886.51
2022-09-23T15:15:48.823Z,99882.96
2022-09-23T15:18:33.136Z,99878.67
2022-09-23T15:21:15.011Z,99872.97
2022-09-23T15:23:52.352Z,99873.34
2022-09-23T15:26:20.815Z,99869.42
2022-09-23T15:28:50.454Z,99866.79
2022-09-23T15:31:21.218Z,99868.29
2022-09-23T15:33:51.469Z,99869.23
2022-09-23T15:36:29.730Z,99869.36
2022-09-23T15:39:06.244Z,99867.06
2022-09-23T15:41:34.994Z,99870.88
2022-09-23T15:44:28.811Z,99865.31
2022-09-23T15:47:01.282Z,99870.73
2022-09-23T15:49:34.387Z,99867.91
2022-09-23T15:52:04.825Z,99868.02
2022-09-23T15:54:34.084Z,99869.84
2022-09-23T15:57:02.400Z,99866.27
2022-09-23T15:59:33.776Z,99865.70
2022-09-23T16:02:09.880Z,99862.52
2022-09-23T16:04:40.765Z,99865.98
2022-09-23T16:07:28.712Z,99864.28
2022-09-23T16:09:59.699Z,99864.11
2022-09-23T16:12:28.039Z,99860.02
2022-09-23T16:14:56.679Z,99858.34
2022-09-23T16:17:25.468Z,99854.84
2022-09-23T16:19:53.703Z,99860.41
2022-09-23T16:22:21.879Z,99858.63
2022-09-23T16:25:42.509Z,99851.41
2022-09-23T16:28:11.302Z,99853.83
2022-09-23T16:30:39.832Z,99856.90
2022-09-23T16:33:08.102Z,99857.24
2022-09-23T16:35:37.674Z,99858.79
2022-09-23T16:38:07.029Z,99857.70
2022-09-23T16:40:35.372Z,99856.80
2022-09-23T16:43:07.852Z,99856.85
2022-09-23T16:45:36.657Z,99858.48
2022-09-23T16:48:05.891Z,99861.09
2022-09-23T16:50:34.864Z,99859.14
2022-09-23T16:53:03.900Z,99861.64
2022-09-23T16:55:32.450Z,99859.91
2022-09-23T16:58:00.671Z,99859.01
2022-09-23T17:00:47.501Z,99858.79
2022-09-23T17:03:34.385Z,99854.73
2022-09-23T17:06:07.895Z,99855.67
2022-09-23T17:08:36.760Z,99855.83
2022-09-23T17:11:05.556Z,99855.62
2022-09-23T17:13:37.772Z,99853.23
2022-09-23T17:16:09.176Z,99852.02
2022-09-23T17:18:43.250Z,99850.69
2022-09-23T17:21:11.822Z,99847.34
2022-09-23T17:23:40.637Z,99843.34
2022-09-23T17:26:12.781Z,99848.46
2022-09-23T17:28:40.904Z,99848.06
2022-09-23T17:31:09.254Z,99845.46
2022-09-23T17:33:37.859Z,99842.61
2022-09-23T17:36:12.107Z,99844.31
2022-09-23T17:38:46.084Z,99846.29
2022-09-23T17:41:16.294Z,99847.50
2022-09-23T17:43:46.954Z,99845.86
2022-09-23T17:46:18.839Z,99848.00
2022-09-23T17:48:47.514Z,99849.69
2022-09-23T17:51:21.511Z,99844.79
2022-09-23T17:53:50.990Z,99847.52
2022-09-23T17:56:26.287Z,99844.67
2022-09-23T17:58:54.747Z,99840.65
2022-09-23T18:01:26.669Z,99839.74
2022-09-23T18:03:56.783Z,99838.67
2022-09-23T18:06:27.673Z,99834.73
2022-09-23T18:09:01.042Z,99837.20
2022-09-23T18:11:31.686Z,99833.53
2022-09-23T18:14:12.002Z,99833.84
2022-09-23T18:16:48.086Z,99833.07
2022-09-23T18:19:19.838Z,99833.92
2022-09-23T18:21:54.655Z,99834.44
2022-09-23T18:24:32.738Z,99833.61
2022-09-23T18:27:23.200Z,99834.45
2022-09-23T18:29:52.052Z,99836.31
2022-09-23T18:32:20.489Z,99839.34
2022-09-23T18:34:48.799Z,99841.27
2022-09-23T18:37:17.229Z,99835.88
2022-09-23T18:39:45.811Z,99838.06
2022-09-23T18:42:14.607Z,99835.97
2022-09-23T18:44:56.561Z,99834.36
2022-09-23T18:47:51.405Z,99831.93
2022-09-23T18:50:43.980Z,99829.33
2022-09-23T18:53:15.669Z,99829.79
2022-09-23T18:55:44.203Z,99824.68
2022-09-23T18:58:16.278Z,99824.28
2022-09-23T19:00:50.585Z,99826.13
2022-09-23T19:03:23.869Z,99826.23
2022-09-23T19:05:52.522Z,99833.16
2022-09-23T19:08:21.221Z,99832.88
2022-09-23T19:10:56.267Z,99830.30
2022-09-23T19:13:24.693Z,99831.27
2022-09-23T19:16:19.368Z,99826.55
2022-09-23T19:18:48.080Z,99824.44
2022-09-23T19:21:21.172Z,99824.20
2022-09-23T19:23:53.690Z,99826.33
2022-09-23T19:26:28.742Z,99826.05
2022-09-23T19:28:58.830Z,99824.59
2022-09-23T19:31:30.245Z,99821.28
2022-09-23T19:34:17.012Z,99822.52
2022-09-23T19:36:48.467Z,99824.27
2022-09-23T19:39:22.572Z,99824.13
2022-09-23T19:41:56.283Z,99825.97
2022-09-23T19:44:27.278Z,99825.40
2022-09-23T19:46:58.960Z,99822.36
2022-09-23T19:49:28.252Z,99829.42
2022-09-23T19:51:57.303Z,99830.52
2022-09-23T19:54:27.759Z,99829.79
2022-09-23T19:56:56.819Z,99828.92
2022-09-23T19:59:34.782Z,99828.51
2022-09-23T20:02:04.412Z,99828.09
2022-09-23T20:04:35.763Z,99828.45
2022-09-23T20:07:09.126Z,99827.27
2022-09-23T20:09:40.232Z,99824.33
2022-09-23T20:12:16.117Z,99824.53
2022-09-23T20:14:48.012Z,99818.45
2022-09-23T20:17:17.661Z,99821.77
2022-09-23T20:19:47.820Z,99820.17
2022-09-23T20:22:33.078Z,99818.26
2022-09-23T20:25:13.269Z,99813.08
2022-09-23T20:27:49.682Z,99814.02
2022-09-23T20:30:20.772Z,99810.98
2022-09-23T20:32:51.872Z,99810.13
2022-09-23T20:35:20.578Z,99808.73
2022-09-23T20:37:49.815Z,99807.70
2022-09-23T20:40:27.352Z,99807.59
2022-09-23T20:42:56.194Z,99809.58
2022-09-23T20:45:50.345Z,99806.84
2022-09-23T20:48:22.524Z,99802.92
2022-09-23T20:51:02.532Z,99804.31
2022-09-23T20:53:35.315Z,99802.15
2022-09-23T20:56:07.134Z,99802.96
2022-09-23T20:58:36.907Z,99799.17
2022-09-23T21:01:10.806Z,99799.08
2022-09-23T21:03:42.206Z,99798.70
2022-09-23T21:06:19.150Z,99794.55
2022-09-23T21:08:53.548Z,99791.39
2022-09-23T21:11:25.830Z,99790.64
2022-09-23T21:13:55.196Z,99786.17
2022-09-23T21:16:24.755Z,99781.48
2022-09-23T21:18:53.318Z,99777.65
2022-09-23T21:21:22.605Z,99781.27
2022-09-23T21:23:56.489Z,99777.55
2022-09-23T21:26:32.367Z,99782.55
2022-09-23T21:29:01.567Z,99780.13
2022-09-23T21:31:36.029Z,99780.42
2022-09-23T21:34:08.033Z,99779.02
2022-09-23T21:36:42.962Z,99776.23
2022-09-23T21:39:12.171Z,99779.92
2022-09-23T21:41:41.531Z,99775.04
2022-09-23T21:44:10.019Z,99777.77
2022-09-23T21:46:39.116Z,99775.04
2022-09-23T21:49:17.847Z,99776.75
2022-09-23T21:51:46.253Z,99773.06
2022-09-23T21:54:16.197Z,99776.07
2022-09-23T21:56:44.992Z,99772.77
2022-09-23T21:59:13.151Z,99770.92
2022-09-23T22:01:45.219Z,99769.42
2022-09-23T22:04:18.644Z,99771.11
2022-09-23T22:06:49.071Z,99769.29
2022-09-23T22:09:19.900Z,99769.16
2022-09-23T22:12:09.933Z,99768.81
2022-09-23T22:14:39.226Z,99764.60
2022-09-23T22:17:10.985Z,99763.14
2022-09-23T22:19:45.842Z,99760.94
2022-09-23T22:22:17.946Z,99755.59
2022-09-23T22:24:48.843Z,99757.38
2022-09-23T22:27:21.143Z,99758.38
2022-09-23T22:30:07.842Z,99758.42
2022-09-23T22:32:42.085Z,99756.69
2022-09-23T22:35:19.385Z,99754.31
2022-09-23T22:37:49.127Z,99752.77
2022-09-23T22:40:17.465Z,99747.17
2022-09-23T22:42:46.370Z,99746.95
2022-09-23T22:45:15.059Z,99742.26
2022-09-23T22:47:45.753Z,99743.58
2022-09-23T22:50:14.927Z,99744.27
2022-09-23T22:52:43.954Z,99743.27
2022-09-23T22:55:12.442Z,99743.13
2022-09-23T22:57:41.059Z,99741.17
2022-09-23T23:00:22.174Z,99740.82
2022-09-23T23:02:50.470Z,99734.13
2022-09-23T23:05:18.974Z,99734.89
2022-09-23T23:07:47.390Z,99737.34
2022-09-23T23:10:17.387Z,99737.42
2022-09-23T23:12:47.073Z,99735.46
2022-09-23T23:15:16.725Z,99734.58
2022-09-23T23:17:44.920Z,99733.16
2022-09-23T23:20:13.051Z,99730.63
2022-09-23T23:22:43.209Z,99728.53
2022-09-23T23:25:11.897Z,99731.54
2022-09-23T23:27:40.196Z,99727.05
2022-09-23T23:30:09.204Z,99730.95
2022-09-23T23:32:37.899Z,99730.77
2022-09-23T23:35:09.619Z,99728.41
2022-09-23T23:37:39.443Z,99729.36
2022-09-23T23:40:09.861Z,99727.39
2022-09-23T23:42:42.287Z,99727.02
2022-09-23T23:45:10.627Z,99725.86
2022-09-23T23:47:41.287Z,99725.77
2022-09-23T23:50:19.027Z,99723.48
2022-09-23T23:52:47.867Z,99722.61
2022-09-23T23:55:17.286Z,99719.27
2022-09-23T23:57:48.026Z,99717.73
